Energean Wave — SVA6915 — position and weather

sailwx.info

Track history (hours):
 
Tides and Currents Weather Stations Pressure Air Temp Water Temp Dewpoint Dewpoint Depression Visibility Wind Speed Wind Dir Waves Ship Positions

Energean Wave

Last reported at 2017-Sep-22 01:54 UTC. Time now 2017-Sep-22 20:54 UTC.
Position N 40°56' E 024°25'.

Length 47 m; draft 2 m.

Type: . MMSI: 239935100.

Date/timePositionNaut miles runAvg speedWind from/ knotsBaromVisibWave heightAir tempDewpointWater temp
2017-Sep-22 01:54N 40°56' E 024°25'0 0.0
2017-Sep-22 00:06N 40°56' E 024°25'0 0.0
2017-Sep-21 23:57N 40°56' E 024°25'0 0.0
2017-Sep-21 23:24N 40°56' E 024°25'0 0.0
2017-Sep-21 23:00N 40°56' E 024°25'0 0.0
2017-Sep-21 22:30N 40°56' E 024°25'0 0.0
2017-Sep-21 21:57N 40°56' E 024°25'0 0.0
2017-Sep-21 21:27N 40°56' E 024°25'0 0.0
2017-Sep-21 20:48N 40°56' E 024°25'0 0.0
2017-Sep-21 20:27N 40°56' E 024°25'0 0.0
2017-Sep-21 19:57N 40°56' E 024°25'0 0.0
2017-Sep-21 19:27N 40°56' E 024°25'0 0.0
2017-Sep-21 19:00N 40°56' E 024°25'0 0.0
2017-Sep-21 18:27N 40°56' E 024°25'0 0.0
2017-Sep-21 17:57N 40°56' E 024°25'4 9.4
2017-Sep-21 17:30N 40°52' E 024°26'510.0
2017-Sep-21 17:00N 40°48' E 024°30'0 0.2
2017-Sep-21 16:30N 40°48' E 024°30'0 0.0
2017-Sep-21 16:00N 40°48' E 024°30'0 0.0
2017-Sep-21 15:27N 40°48' E 024°30'0 0.0
2017-Sep-21 14:59N 40°48' E 024°30'0 0.0
2017-Sep-21 14:30N 40°48' E 024°30'714.4
2017-Sep-21 14:00N 40°55' E 024°29'1 2.2
2017-Sep-21 13:30N 40°56' E 024°29'714.9
2017-Sep-21 13:00N 40°49' E 024°31'1 1.2
2017-Sep-21 12:30N 40°48' E 024°30'0 0.1
2017-Sep-21 12:00N 40°48' E 024°30'0 0.4
2017-Sep-21 11:26N 40°48' E 024°30'0 0.7
2017-Sep-21 10:59N 40°48' E 024°30'0 0.4
2017-Sep-21 10:30N 40°48' E 024°30'0 0.4
2017-Sep-21 10:00N 40°48' E 024°30'3 7.0
2017-Sep-21 09:30N 40°51' E 024°32'612.0
2017-Sep-21 09:00N 40°57' E 024°33'0 0.0
2017-Sep-21 08:30N 40°57' E 024°33'0 0.1
2017-Sep-21 08:00N 40°57' E 024°33'0 0.0
2017-Sep-21 07:30N 40°57' E 024°33'0 0.0
2017-Sep-21 07:00N 40°57' E 024°33'0 0.0
2017-Sep-21 06:30N 40°57' E 024°33'0 0.0
2017-Sep-21 06:00N 40°57' E 024°33'510.9
2017-Sep-21 05:30N 40°52' E 024°31'4 8.2
2017-Sep-21 04:59N 40°48' E 024°30'510.9
2017-Sep-21 04:30N 40°52' E 024°27'4 1.7
2017-Sep-21 02:16N 40°56' E 024°25'0 0.0
2017-Sep-21 01:10N 40°56' E 024°25'0 0.0
2017-Sep-21 00:46N 40°56' E 024°25'0 0.0
2017-Sep-21 00:28N 40°56' E 024°25'0 0.0
2017-Sep-20 23:04N 40°56' E 024°25'0 0.0
2017-Sep-20 22:58N 40°56' E 024°25'0 0.0
2017-Sep-20 22:22N 40°56' E 024°25'0 0.0
2017-Sep-20 21:58N 40°56' E 024°25'0 0.0
2017-Sep-20 21:28N 40°56' E 024°25'0 0.0
2017-Sep-20 20:58N 40°56' E 024°25'0 0.0
2017-Sep-20 20:28N 40°56' E 024°25'0 0.0
2017-Sep-20 19:58N 40°56' E 024°25'0 0.0
2017-Sep-20 19:28N 40°56' E 024°25'0 0.0
2017-Sep-20 18:58N 40°56' E 024°25'0 0.0
2017-Sep-20 18:28N 40°56' E 024°25'0 0.0
2017-Sep-20 17:58N 40°56' E 024°25'3 5.8
2017-Sep-20 17:30N 40°53' E 024°26'612.6
2017-Sep-20 17:00N 40°48' E 024°30'0 0.2
2017-Sep-20 16:30N 40°48' E 024°30'0 0.0
2017-Sep-20 16:00N 40°48' E 024°30'0 0.0
2017-Sep-20 15:30N 40°48' E 024°30'0 0.0
2017-Sep-20 15:00N 40°48' E 024°30'0 0.0
2017-Sep-20 14:00N 40°48' E 024°30'0 0.0
2017-Sep-20 13:30N 40°48' E 024°30'0 0.1
2017-Sep-20 13:00N 40°48' E 024°30'0 0.1
2017-Sep-20 12:30N 40°48' E 024°30'0 0.0
2017-Sep-20 11:59N 40°48' E 024°30'0 0.0
2017-Sep-20 11:26N 40°48' E 024°30'0 0.0
2017-Sep-20 10:59N 40°48' E 024°30'0 0.4
2017-Sep-20 10:30N 40°48' E 024°30'0 0.4
2017-Sep-20 09:56N 40°48' E 024°30'0 0.0
2017-Sep-20 09:29N 40°48' E 024°30'0 0.0
2017-Sep-20 08:59N 40°48' E 024°30'0 0.0
2017-Sep-20 08:26N 40°48' E 024°30'0 0.0
2017-Sep-20 07:59N 40°48' E 024°30'0 0.0
2017-Sep-20 07:29N 40°48' E 024°30'0 0.0
2017-Sep-20 06:56N 40°48' E 024°30'0 0.0
2017-Sep-20 06:29N 40°48' E 024°30'0 0.0
2017-Sep-20 05:59N 40°48' E 024°30'0 0.0
2017-Sep-20 05:17N 40°48' E 024°30'0 0.6
2017-Sep-20 05:00N 40°48' E 024°30'611.1
2017-Sep-20 04:30N 40°53' E 024°27'3 6.1
2017-Sep-20 03:56N 40°56' E 024°25'0 0.0
2017-Sep-20 03:26N 40°56' E 024°25'0 0.0
2017-Sep-20 02:56N 40°56' E 024°25'0 0.0
2017-Sep-19 23:34N 40°56' E 024°25'0 0.0
2017-Sep-19 23:28N 40°56' E 024°25'0 0.0
2017-Sep-19 22:46N 40°56' E 024°25'0 0.0
2017-Sep-19 22:28N 40°56' E 024°25'0 0.0
2017-Sep-19 21:58N 40°56' E 024°25'0 0.0
2017-Sep-19 21:28N 40°56' E 024°25'0 0.0
2017-Sep-19 20:58N 40°56' E 024°25'0 0.0
2017-Sep-19 20:28N 40°56' E 024°25'0 0.0
2017-Sep-19 19:58N 40°56' E 024°25'0 0.0
2017-Sep-19 19:28N 40°56' E 024°25'0 0.0
2017-Sep-19 18:58N 40°56' E 024°25'0 0.0
2017-Sep-19 18:28N 40°56' E 024°25'0 0.0
2017-Sep-19 17:58N 40°56' E 024°25'0 0.0
2017-Sep-19 17:28N 40°56' E 024°25'0 0.0
2017-Sep-19 16:58N 40°56' E 024°25'0 0.0
2017-Sep-19 16:22N 40°56' E 024°25'0 0.0
2017-Sep-19 15:52N 40°56' E 024°25'0 0.0
2017-Sep-19 15:22N 40°56' E 024°25'0 0.0
2017-Sep-19 14:58N 40°56' E 024°25'0 0.0
2017-Sep-19 14:28N 40°56' E 024°25'0 0.0
2017-Sep-19 13:56N 40°56' E 024°25'4 9.4
2017-Sep-19 13:30N 40°52' E 024°27'5 9.8
2017-Sep-19 13:01N 40°48' E 024°30'510.9
2017-Sep-19 12:30N 40°53' E 024°27'3 5.3
2017-Sep-19 11:52N 40°56' E 024°25'0 0.0
2017-Sep-19 11:28N 40°56' E 024°25'0 0.0
2017-Sep-19 10:58N 40°56' E 024°25'0 0.0
2017-Sep-19 10:28N 40°56' E 024°25'0 0.0
2017-Sep-19 09:58N 40°56' E 024°25'0 0.0
2017-Sep-19 09:28N 40°56' E 024°25'0 0.0
2017-Sep-19 08:58N 40°56' E 024°25'0 0.0
2017-Sep-19 08:28N 40°56' E 024°25'0 0.0
2017-Sep-19 07:58N 40°56' E 024°25'0 0.0
2017-Sep-19 07:24N 40°56' E 024°25'0 0.0
2017-Sep-19 07:00N 40°56' E 024°25'0 0.0
2017-Sep-19 06:30N 40°56' E 024°25'0 0.0
2017-Sep-19 06:00N 40°56' E 024°25'4 8.5
2017-Sep-19 05:30N 40°52' E 024°26'5 9.2
2017-Sep-19 04:59N 40°48' E 024°30'611.7
2017-Sep-19 04:30N 40°53' E 024°26'3 5.8
2017-Sep-19 03:56N 40°56' E 024°25'0 0.0
2017-Sep-19 03:26N 40°56' E 024°25'0 0.0
2017-Sep-19 02:56N 40°56' E 024°25'0 0.0
2017-Sep-19 00:14N 40°56' E 024°25'0 0.0
2017-Sep-18 22:44N 40°56' E 024°25'0 0.0
2017-Sep-18 22:29N 40°56' E 024°25'0 0.0
2017-Sep-18 21:59N 40°56' E 024°25'0 0.0
2017-Sep-18 21:17N 40°56' E 024°25'0 0.0
2017-Sep-18 20:53N 40°56' E 024°25'0 0.0
2017-Sep-18 20:29N 40°56' E 024°25'0 0.0
2017-Sep-18 18:47N 40°56' E 024°25'0 0.0
2017-Sep-18 18:29N 40°56' E 024°25'0 0.0
2017-Sep-18 17:59N 40°56' E 024°25'0 0.0
2017-Sep-18 17:17N 40°56' E 024°25'0 0.0
2017-Sep-18 16:59N 40°56' E 024°25'0 0.0
2017-Sep-18 16:29N 40°56' E 024°25'0 0.0
2017-Sep-18 15:59N 40°56' E 024°25'0 0.0
2017-Sep-18 14:35N 40°56' E 024°25'0 0.0
2017-Sep-18 14:29N 40°56' E 024°25'0 0.3
2017-Sep-18 14:01N 40°56' E 024°25'611.7
2017-Sep-18 13:30N 40°50' E 024°28'3 6.0
2017-Sep-18 12:59N 40°48' E 024°30'511.2
2017-Sep-18 12:30N 40°53' E 024°27'4 3.0
2017-Sep-18 11:21N 40°56' E 024°25'0 0.0
2017-Sep-18 10:51N 40°56' E 024°25'0 0.0
2017-Sep-18 10:30N 40°56' E 024°25'0 0.0
2017-Sep-18 09:57N 40°56' E 024°25'0 0.0
2017-Sep-18 09:26N 40°56' E 024°25'0 0.0
2017-Sep-18 08:56N 40°56' E 024°25'0 0.0
2017-Sep-18 08:26N 40°56' E 024°25'0 0.0
2017-Sep-18 07:59N 40°56' E 024°25'0 0.0
2017-Sep-18 07:23N 40°56' E 024°25'0 0.0
2017-Sep-18 06:59N 40°56' E 024°25'0 0.0
2017-Sep-18 06:29N 40°56' E 024°25'0 0.4
2017-Sep-18 05:58N 40°56' E 024°25'713.7
2017-Sep-18 05:28N 40°50' E 024°28'2 4.6
2017-Sep-18 04:58N 40°48' E 024°30'511.8
2017-Sep-18 04:31N 40°53' E 024°27'3 5.9
2017-Sep-18 03:56N 40°56' E 024°25'0 0.0
2017-Sep-18 03:26N 40°56' E 024°25'0 0.0
2017-Sep-18 02:56N 40°56' E 024°25'0 0.0
2017-Sep-18 02:26N 40°56' E 024°25'0 0.0
2017-Sep-18 01:56N 40°56' E 024°25'0 0.0
2017-Sep-18 01:26N 40°56' E 024°25'0 0.0
2017-Sep-18 00:56N 40°56' E 024°25'0 0.0
2017-Sep-18 00:26N 40°56' E 024°25'0 0.0
2017-Sep-17 23:53N 40°56' E 024°25'0 0.0
2017-Sep-17 23:26N 40°56' E 024°25'0 0.0
2017-Sep-17 22:56N 40°56' E 024°25'0 0.0
2017-Sep-17 22:26N 40°56' E 024°25'0 0.4
2017-Sep-17 22:00N 40°56' E 024°25'612.4
2017-Sep-17 21:30N 40°50' E 024°27'3 6.1
2017-Sep-17 21:00N 40°48' E 024°30'510.7
2017-Sep-17 20:30N 40°53' E 024°27'4 6.1
2017-Sep-17 19:55N 40°56' E 024°25'0 0.0
2017-Sep-17 19:25N 40°56' E 024°25'0 0.0
2017-Sep-17 18:55N 40°56' E 024°25'0 0.0
2017-Sep-17 18:25N 40°56' E 024°25'0 0.0
2017-Sep-17 17:55N 40°56' E 024°25'3 6.6
2017-Sep-17 17:30N 40°53' E 024°26'611.3
2017-Sep-17 16:58N 40°48' E 024°30'511.9
2017-Sep-17 16:30N 40°53' E 024°27'3 6.4
2017-Sep-17 15:58N 40°56' E 024°25'0 0.0
2017-Sep-17 15:28N 40°56' E 024°25'0 0.0
2017-Sep-17 14:58N 40°56' E 024°25'0 0.0
2017-Sep-17 14:28N 40°56' E 024°25'0 0.3
2017-Sep-17 14:01N 40°56' E 024°25'611.5
2017-Sep-17 13:30N 40°51' E 024°28'3 6.5
2017-Sep-17 13:00N 40°48' E 024°30'611.5
2017-Sep-17 12:31N 40°53' E 024°27'3 4.3
2017-Sep-17 11:46N 40°56' E 024°25'0 0.0
2017-Sep-17 11:28N 40°56' E 024°25'0 0.0
2017-Sep-17 10:58N 40°56' E 024°25'0 0.0
2017-Sep-17 10:28N 40°56' E 024°25'0 0.0
2017-Sep-17 09:52N 40°56' E 024°25'0 0.0
2017-Sep-17 09:28N 40°56' E 024°25'0 0.0
2017-Sep-17 08:52N 40°56' E 024°25'0 0.0
2017-Sep-17 08:28N 40°56' E 024°25'0 0.0
2017-Sep-17 07:58N 40°56' E 024°25'0 0.0
2017-Sep-17 07:22N 40°56' E 024°25'0 0.0
2017-Sep-17 06:58N 40°56' E 024°25'0 0.0
2017-Sep-17 06:26N 40°56' E 024°25'0 0.0
2017-Sep-17 05:56N 40°56' E 024°25'4 9.5
2017-Sep-17 05:30N 40°52' E 024°26'5 9.3
2017-Sep-17 04:59N 40°48' E 024°30'611.8
2017-Sep-17 04:31N 40°53' E 024°27'3 6.6
2017-Sep-17 04:00N 40°56' E 024°25'0 0.0
2017-Sep-17 03:30N 40°56' E 024°25'0 0.0
2017-Sep-17 03:00N 40°56' E 024°25'0 0.0
2017-Sep-17 02:30N 40°56' E 024°25'0 0.0
2017-Sep-17 02:00N 40°56' E 024°25'0 0.0
2017-Sep-17 01:27N 40°56' E 024°25'0 0.0
2017-Sep-17 00:57N 40°56' E 024°25'0 0.0
2017-Sep-17 00:27N 40°56' E 024°25'0 0.0
2017-Sep-16 23:57N 40°56' E 024°25'0 0.0
2017-Sep-16 23:27N 40°56' E 024°25'0 0.0
2017-Sep-16 23:00N 40°56' E 024°25'0 0.0
2017-Sep-16 22:30N 40°56' E 024°25'0 0.0
2017-Sep-16 22:00N 40°56' E 024°25'0 0.0
2017-Sep-16 21:30N 40°56' E 024°25'0 0.0
2017-Sep-16 21:00N 40°56' E 024°25'0 0.0
2017-Sep-16 20:30N 40°56' E 024°25'0 0.0
2017-Sep-16 20:00N 40°56' E 024°25'0 0.0
2017-Sep-16 19:30N 40°56' E 024°25'0 0.0
2017-Sep-16 19:00N 40°56' E 024°25'0 0.0
2017-Sep-16 18:30N 40°56' E 024°25'0 0.0
2017-Sep-16 18:00N 40°56' E 024°25'0 0.0
2017-Sep-16 17:30N 40°56' E 024°25'0 0.0
2017-Sep-16 17:00N 40°56' E 024°25'0 0.0
2017-Sep-16 16:30N 40°56' E 024°25'0 0.0
2017-Sep-16 16:00N 40°56' E 024°25'0 0.0
2017-Sep-16 15:30N 40°56' E 024°25'0 0.0
2017-Sep-16 15:00N 40°56' E 024°25'0 0.0
2017-Sep-16 14:30N 40°56' E 024°25'0 0.0
2017-Sep-16 14:00N 40°56' E 024°25'0 0.0
2017-Sep-16 13:30N 40°56' E 024°25'0 0.0
2017-Sep-16 13:00N 40°56' E 024°25'0 0.0
2017-Sep-16 12:30N 40°56' E 024°25'0 0.0
2017-Sep-16 12:00N 40°56' E 024°25'0 0.0
2017-Sep-16 11:30N 40°56' E 024°25'0 0.0
2017-Sep-16 11:00N 40°56' E 024°25'0 0.0
2017-Sep-16 10:30N 40°56' E 024°25'0 0.0
2017-Sep-16 10:00N 40°56' E 024°25'0 0.0
2017-Sep-16 09:30N 40°56' E 024°25'0 0.0
2017-Sep-16 09:00N 40°56' E 024°25'0 0.0
2017-Sep-16 08:30N 40°56' E 024°25'0 0.0
2017-Sep-16 08:00N 40°56' E 024°25'0 0.0
2017-Sep-16 07:30N 40°56' E 024°25'0 0.0
2017-Sep-16 07:00N 40°56' E 024°25'0 0.0
2017-Sep-16 06:28N 40°56' E 024°25'0 0.0
2017-Sep-16 05:58N 40°56' E 024°25'0 0.0
2017-Sep-16 05:28N 40°56' E 024°25'0 0.0
2017-Sep-16 04:58N 40°56' E 024°25'0 0.0
2017-Sep-16 04:28N 40°56' E 024°25'0 0.0
2017-Sep-16 03:52N 40°56' E 024°25'0 0.0
2017-Sep-16 03:28N 40°56' E 024°25'0 0.0
2017-Sep-16 02:58N 40°56' E 024°25'0 0.0
2017-Sep-16 02:28N 40°56' E 024°25'0 0.0
2017-Sep-16 01:58N 40°56' E 024°25'0 0.0
2017-Sep-16 01:28N 40°56' E 024°25'0 0.0
2017-Sep-16 00:58N 40°56' E 024°25'0 0.0
2017-Sep-16 00:28N 40°56' E 024°25'0 0.0
2017-Sep-15 23:58N 40°56' E 024°25'0 0.0
2017-Sep-15 23:28N 40°56' E 024°25'0 0.0
2017-Sep-15 22:58N 40°56' E 024°25'0 0.0
2017-Sep-15 22:28N 40°56' E 024°25'0 0.2
2017-Sep-15 22:01N 40°56' E 024°24'714.0
2017-Sep-15 21:30N 40°49' E 024°28'2 4.0
2017-Sep-15 21:00N 40°48' E 024°30'611.2
2017-Sep-15 20:30N 40°53' E 024°27'3 6.4
2017-Sep-15 19:59N 40°56' E 024°25'0 0.0
2017-Sep-15 19:29N 40°56' E 024°25'0 0.0
2017-Sep-15 18:59N 40°56' E 024°25'0 0.0
2017-Sep-15 18:29N 40°56' E 024°25'0 0.0
2017-Sep-15 17:59N 40°56' E 024°25'0 0.0
2017-Sep-15 17:29N 40°56' E 024°25'0 0.0
2017-Sep-15 16:59N 40°56' E 024°25'0 0.0
2017-Sep-15 16:29N 40°56' E 024°25'0 0.0
2017-Sep-15 15:59N 40°56' E 024°25'0 0.0
2017-Sep-15 15:26N 40°56' E 024°25'0 0.0
2017-Sep-15 14:59N 40°56' E 024°25'0 0.0
2017-Sep-15 14:26N 40°56' E 024°25'0 0.3
2017-Sep-15 14:00N 40°56' E 024°24'814.9
2017-Sep-15 13:29N 40°49' E 024°29'1 2.8
2017-Sep-15 13:00N 40°48' E 024°30'611.3
2017-Sep-15 12:30N 40°53' E 024°27'3 3.5
2017-Sep-15 11:34N 40°56' E 024°25'0 0.1
2017-Sep-15 11:28N 40°56' E 024°25'0 0.0
2017-Sep-15 10:58N 40°56' E 024°25'0 0.2
2017-Sep-15 10:28N 40°56' E 024°25'0 0.0
2017-Sep-15 09:58N 40°56' E 024°25'0 0.0
2017-Sep-15 09:28N 40°56' E 024°25'0 0.0
2017-Sep-15 09:01N 40°56' E 024°25'0 0.0
2017-Sep-15 08:28N 40°56' E 024°25'0 0.0
2017-Sep-15 08:01N 40°56' E 024°25'0 0.0
2017-Sep-15 07:28N 40°56' E 024°25'0 0.0
2017-Sep-15 06:56N 40°56' E 024°25'0 0.0
2017-Sep-15 06:29N 40°56' E 024°25'0 0.0
2017-Sep-15 05:58N 40°56' E 024°25'4 9.5
2017-Sep-15 05:30N 40°52' E 024°27'5 8.7
2017-Sep-15 04:59N 40°48' E 024°30'511.2
2017-Sep-15 04:30N 40°53' E 024°27'4 6.7
2017-Sep-15 03:59N 40°56' E 024°25'0 0.0
2017-Sep-15 03:29N 40°56' E 024°25'0 0.0
2017-Sep-15 02:59N 40°56' E 024°25'0 0.0
2017-Sep-15 02:29N 40°56' E 024°25'0 0.0
2017-Sep-15 01:59N 40°56' E 024°25'0 0.0
2017-Sep-15 01:29N 40°56' E 024°25'0 0.0
2017-Sep-15 00:53N 40°56' E 024°25'0 0.0
2017-Sep-15 00:29N 40°56' E 024°25'0 0.0
2017-Sep-14 23:59N 40°56' E 024°25'0 0.0
2017-Sep-14 23:29N 40°56' E 024°25'0 0.0
2017-Sep-14 22:59N 40°56' E 024°25'0 0.0
2017-Sep-14 22:29N 40°56' E 024°25'0 0.0
2017-Sep-14 21:59N 40°56' E 024°25'0 0.0
2017-Sep-14 21:29N 40°56' E 024°25'0 0.0
2017-Sep-14 20:59N 40°56' E 024°25'0 0.0
2017-Sep-14 20:29N 40°56' E 024°25'0 0.0
2017-Sep-14 19:59N 40°56' E 024°25'0 0.0
2017-Sep-14 19:29N 40°56' E 024°25'0 0.0
2017-Sep-14 18:59N 40°56' E 024°25'0 0.0
2017-Sep-14 18:29N 40°56' E 024°25'0 0.0
2017-Sep-14 17:56N 40°56' E 024°25'0 0.0
2017-Sep-14 17:23N 40°56' E 024°25'0 0.0
2017-Sep-14 16:59N 40°56' E 024°25'0 0.0
2017-Sep-14 16:29N 40°56' E 024°25'0 0.0
2017-Sep-14 15:59N 40°56' E 024°25'0 0.0
2017-Sep-14 15:29N 40°56' E 024°25'0 0.0
2017-Sep-14 14:38N 40°56' E 024°25'0 2.5
2017-Sep-14 14:30N 40°56' E 024°25'612.2
2017-Sep-14 14:00N 40°57' E 024°33'815.7
2017-Sep-14 13:30N 40°49' E 024°31'2 3.4
2017-Sep-14 12:58N 40°48' E 024°30'0 0.4
2017-Sep-14 12:29N 40°48' E 024°30'0 0.0
2017-Sep-14 11:59N 40°48' E 024°30'0 0.0
2017-Sep-14 11:26N 40°48' E 024°30'0 0.0
2017-Sep-14 10:50N 40°48' E 024°30'0 0.5
2017-Sep-14 10:29N 40°48' E 024°30'612.6
2017-Sep-14 10:00N 40°54' E 024°32'4 7.0
2017-Sep-14 09:29N 40°57' E 024°33'0 0.0
2017-Sep-14 08:59N 40°57' E 024°33'0 0.0
2017-Sep-14 08:29N 40°57' E 024°33'0 0.0
2017-Sep-14 07:59N 40°57' E 024°33'0 0.1
2017-Sep-14 07:29N 40°57' E 024°33'0 0.0
2017-Sep-14 06:59N 40°57' E 024°33'0 0.6
2017-Sep-14 06:30N 40°57' E 024°32'610.5
2017-Sep-14 05:57N 40°56' E 024°25'511.9
2017-Sep-14 05:30N 40°51' E 024°27'4 7.3
2017-Sep-14 04:59N 40°48' E 024°30'611.7
2017-Sep-14 04:31N 40°53' E 024°27'3 6.1
2017-Sep-14 03:58N 40°56' E 024°25'0 0.0
2017-Sep-14 03:22N 40°56' E 024°25'0 0.0
2017-Sep-14 02:58N 40°56' E 024°25'0 0.0
2017-Sep-14 02:28N 40°56' E 024°25'0 0.0
2017-Sep-14 01:58N 40°56' E 024°25'0 0.0
2017-Sep-14 01:28N 40°56' E 024°25'0 0.0
2017-Sep-14 00:58N 40°56' E 024°25'0 0.0
2017-Sep-14 00:25N 40°56' E 024°25'0 0.0
2017-Sep-13 23:55N 40°56' E 024°25'0 0.0
2017-Sep-13 23:19N 40°56' E 024°25'0 0.0
2017-Sep-13 22:58N 40°56' E 024°25'0 0.0
2017-Sep-13 22:25N 40°56' E 024°25'0 0.1
2017-Sep-13 22:00N 40°56' E 024°25'510.2
2017-Sep-13 21:30N 40°51' E 024°27'4 7.4
2017-Sep-13 21:00N 40°48' E 024°30'511.1
2017-Sep-13 20:30N 40°53' E 024°27'4 6.7
2017-Sep-13 19:59N 40°56' E 024°25'0 0.0
2017-Sep-13 19:29N 40°56' E 024°25'0 0.0
2017-Sep-13 18:47N 40°56' E 024°25'0 0.0
2017-Sep-13 18:29N 40°56' E 024°25'0 0.0
2017-Sep-13 17:59N 40°56' E 024°25'0 0.0
2017-Sep-13 17:29N 40°56' E 024°25'0 0.0
2017-Sep-13 16:59N 40°56' E 024°25'0 0.0
2017-Sep-13 16:29N 40°56' E 024°25'0 0.0
2017-Sep-13 15:53N 40°56' E 024°25'0 0.0
2017-Sep-13 15:29N 40°56' E 024°25'0 0.0
2017-Sep-13 14:59N 40°56' E 024°25'0 0.0
2017-Sep-13 14:29N 40°56' E 024°25'0 0.4
2017-Sep-13 14:00N 40°56' E 024°25'612.7
2017-Sep-13 13:30N 40°50' E 024°28'3 5.7
2017-Sep-13 13:00N 40°48' E 024°30'510.9
2017-Sep-13 12:30N 40°53' E 024°27'4 6.1
2017-Sep-13 11:56N 40°56' E 024°25'0 0.0
2017-Sep-13 11:26N 40°56' E 024°25'0 0.0
2017-Sep-13 10:56N 40°56' E 024°25'0 0.0
2017-Sep-13 10:26N 40°56' E 024°25'0 0.0
2017-Sep-13 09:53N 40°56' E 024°25'0 0.0
2017-Sep-13 09:29N 40°56' E 024°25'0 0.0
2017-Sep-13 08:59N 40°56' E 024°25'0 0.0
2017-Sep-13 08:29N 40°56' E 024°25'0 0.0
2017-Sep-13 07:56N 40°56' E 024°25'0 0.0
2017-Sep-13 07:26N 40°56' E 024°25'0 0.0
2017-Sep-13 06:56N 40°56' E 024°25'0 0.0
2017-Sep-13 06:26N 40°56' E 024°25'0 0.1
2017-Sep-13 06:01N 40°56' E 024°25'5 9.7
2017-Sep-13 05:30N 40°51' E 024°27'4 7.9
2017-Sep-13 04:59N 40°48' E 024°30'611.7
2017-Sep-13 04:30N 40°53' E 024°27'3 5.7
2017-Sep-13 03:55N 40°56' E 024°25'0 0.0
2017-Sep-13 03:28N 40°56' E 024°25'0 0.0
2017-Sep-13 02:52N 40°56' E 024°25'0 0.0
2017-Sep-13 02:25N 40°56' E 024°25'0 0.0
2017-Sep-13 01:55N 40°56' E 024°25'0 0.0
2017-Sep-12 23:25N 40°56' E 024°25'0 0.0
2017-Sep-12 22:55N 40°56' E 024°25'0 0.0
2017-Sep-12 22:25N 40°56' E 024°25'0 0.0
2017-Sep-12 22:01N 40°56' E 024°25'5 9.5
2017-Sep-12 21:31N 40°51' E 024°27'4 8.4
2017-Sep-12 21:00N 40°48' E 024°30'611.4
2017-Sep-12 20:30N 40°53' E 024°27'3 5.1
2017-Sep-12 19:51N 40°56' E 024°25'0 0.0
2017-Sep-12 19:27N 40°56' E 024°25'0 0.0
2017-Sep-12 18:57N 40°56' E 024°25'0 0.0
2017-Sep-12 18:27N 40°56' E 024°25'0 0.0
2017-Sep-12 17:15N 40°56' E 024°25'0 0.0
2017-Sep-12 17:00N 40°56' E 024°25'0 0.0
2017-Sep-12 16:27N 40°56' E 024°25'0 0.0
2017-Sep-12 16:00N 40°56' E 024°25'0 0.0
2017-Sep-12 14:12N 40°56' E 024°25'0 2.3
2017-Sep-12 14:00N 40°55' E 024°24'815.7
2017-Sep-12 13:30N 40°49' E 024°29'1 1.9
2017-Sep-12 13:01N 40°48' E 024°30'611.3
2017-Sep-12 12:30N 40°53' E 024°27'3 5.8
2017-Sep-12 11:57N 40°56' E 024°25'0 0.0
2017-Sep-12 11:27N 40°56' E 024°25'0 0.0
2017-Sep-12 10:57N 40°56' E 024°25'0 0.0
2017-Sep-12 10:27N 40°56' E 024°25'0 0.0
2017-Sep-12 09:57N 40°56' E 024°25'0 0.0
2017-Sep-12 09:21N 40°56' E 024°25'0 0.0
2017-Sep-12 08:57N 40°56' E 024°25'0 0.0
2017-Sep-12 08:27N 40°56' E 024°25'0 0.0
2017-Sep-12 07:57N 40°56' E 024°25'0 0.0
2017-Sep-12 07:27N 40°56' E 024°25'0 0.0
2017-Sep-12 06:57N 40°56' E 024°25'0 0.0
2017-Sep-12 06:27N 40°56' E 024°25'0 0.3
2017-Sep-12 06:00N 40°56' E 024°25'510.4
2017-Sep-12 05:30N 40°51' E 024°27'4 7.6
2017-Sep-12 05:00N 40°48' E 024°30'611.1
2017-Sep-12 04:30N 40°53' E 024°27'3 4.1
2017-Sep-12 03:41N 40°56' E 024°25'0 0.0
2017-Sep-12 03:29N 40°56' E 024°25'0 0.0
2017-Sep-12 02:59N 40°56' E 024°25'0 0.0
2017-Sep-12 02:29N 40°56' E 024°25'0 0.0
2017-Sep-12 01:59N 40°56' E 024°25'  
Track history (hours):
 
Tides and Currents Weather Stations Pressure Air Temp Water Temp Dewpoint Dewpoint Depression Visibility Wind Speed Wind Dir Waves Ship Positions

Energean Wave

Last reported at 2017-Sep-22 01:54 UTC. Time now 2017-Sep-22 20:54 UTC.
Position N 40°56' E 024°25'.

Length 47 m; draft 2 m.

Type: . MMSI: 239935100.

Date/timePositionNaut miles runAvg speedWind from/ knotsBaromVisibWave heightAir tempDewpointWater temp
2017-Sep-22 01:54N 40°56' E 024°25'0 0.0
2017-Sep-22 00:06N 40°56' E 024°25'0 0.0
2017-Sep-21 23:57N 40°56' E 024°25'0 0.0
2017-Sep-21 23:24N 40°56' E 024°25'0 0.0
2017-Sep-21 23:00N 40°56' E 024°25'0 0.0
2017-Sep-21 22:30N 40°56' E 024°25'0 0.0
2017-Sep-21 21:57N 40°56' E 024°25'0 0.0
2017-Sep-21 21:27N 40°56' E 024°25'0 0.0
2017-Sep-21 20:48N 40°56' E 024°25'0 0.0
2017-Sep-21 20:27N 40°56' E 024°25'0 0.0
2017-Sep-21 19:57N 40°56' E 024°25'0 0.0
2017-Sep-21 19:27N 40°56' E 024°25'0 0.0
2017-Sep-21 19:00N 40°56' E 024°25'0 0.0
2017-Sep-21 18:27N 40°56' E 024°25'0 0.0
2017-Sep-21 17:57N 40°56' E 024°25'4 9.4
2017-Sep-21 17:30N 40°52' E 024°26'510.0
2017-Sep-21 17:00N 40°48' E 024°30'0 0.2
2017-Sep-21 16:30N 40°48' E 024°30'0 0.0
2017-Sep-21 16:00N 40°48' E 024°30'0 0.0
2017-Sep-21 15:27N 40°48' E 024°30'0 0.0
2017-Sep-21 14:59N 40°48' E 024°30'0 0.0
2017-Sep-21 14:30N 40°48' E 024°30'714.4
2017-Sep-21 14:00N 40°55' E 024°29'1 2.2
2017-Sep-21 13:30N 40°56' E 024°29'714.9
2017-Sep-21 13:00N 40°49' E 024°31'1 1.2
2017-Sep-21 12:30N 40°48' E 024°30'0 0.1
2017-Sep-21 12:00N 40°48' E 024°30'0 0.4
2017-Sep-21 11:26N 40°48' E 024°30'0 0.7
2017-Sep-21 10:59N 40°48' E 024°30'0 0.4
2017-Sep-21 10:30N 40°48' E 024°30'0 0.4
2017-Sep-21 10:00N 40°48' E 024°30'3 7.0
2017-Sep-21 09:30N 40°51' E 024°32'612.0
2017-Sep-21 09:00N 40°57' E 024°33'0 0.0
2017-Sep-21 08:30N 40°57' E 024°33'0 0.1
2017-Sep-21 08:00N 40°57' E 024°33'0 0.0
2017-Sep-21 07:30N 40°57' E 024°33'0 0.0
2017-Sep-21 07:00N 40°57' E 024°33'0 0.0
2017-Sep-21 06:30N 40°57' E 024°33'0 0.0
2017-Sep-21 06:00N 40°57' E 024°33'510.9
2017-Sep-21 05:30N 40°52' E 024°31'4 8.2
2017-Sep-21 04:59N 40°48' E 024°30'510.9
2017-Sep-21 04:30N 40°52' E 024°27'4 1.7
2017-Sep-21 02:16N 40°56' E 024°25'0 0.0
2017-Sep-21 01:10N 40°56' E 024°25'0 0.0
2017-Sep-21 00:46N 40°56' E 024°25'0 0.0
2017-Sep-21 00:28N 40°56' E 024°25'0 0.0
2017-Sep-20 23:04N 40°56' E 024°25'0 0.0
2017-Sep-20 22:58N 40°56' E 024°25'0 0.0
2017-Sep-20 22:22N 40°56' E 024°25'0 0.0
2017-Sep-20 21:58N 40°56' E 024°25'0 0.0
2017-Sep-20 21:28N 40°56' E 024°25'0 0.0
2017-Sep-20 20:58N 40°56' E 024°25'0 0.0
2017-Sep-20 20:28N 40°56' E 024°25'0 0.0
2017-Sep-20 19:58N 40°56' E 024°25'0 0.0
2017-Sep-20 19:28N 40°56' E 024°25'0 0.0
2017-Sep-20 18:58N 40°56' E 024°25'0 0.0
2017-Sep-20 18:28N 40°56' E 024°25'0 0.0
2017-Sep-20 17:58N 40°56' E 024°25'3 5.8
2017-Sep-20 17:30N 40°53' E 024°26'612.6
2017-Sep-20 17:00N 40°48' E 024°30'0 0.2
2017-Sep-20 16:30N 40°48' E 024°30'0 0.0
2017-Sep-20 16:00N 40°48' E 024°30'0 0.0
2017-Sep-20 15:30N 40°48' E 024°30'0 0.0
2017-Sep-20 15:00N 40°48' E 024°30'0 0.0
2017-Sep-20 14:00N 40°48' E 024°30'0 0.0
2017-Sep-20 13:30N 40°48' E 024°30'0 0.1
2017-Sep-20 13:00N 40°48' E 024°30'0 0.1
2017-Sep-20 12:30N 40°48' E 024°30'0 0.0
2017-Sep-20 11:59N 40°48' E 024°30'0 0.0
2017-Sep-20 11:26N 40°48' E 024°30'0 0.0
2017-Sep-20 10:59N 40°48' E 024°30'0 0.4
2017-Sep-20 10:30N 40°48' E 024°30'0 0.4
2017-Sep-20 09:56N 40°48' E 024°30'0 0.0
2017-Sep-20 09:29N 40°48' E 024°30'0 0.0
2017-Sep-20 08:59N 40°48' E 024°30'0 0.0
2017-Sep-20 08:26N 40°48' E 024°30'0 0.0
2017-Sep-20 07:59N 40°48' E 024°30'0 0.0
2017-Sep-20 07:29N 40°48' E 024°30'0 0.0
2017-Sep-20 06:56N 40°48' E 024°30'0 0.0
2017-Sep-20 06:29N 40°48' E 024°30'0 0.0
2017-Sep-20 05:59N 40°48' E 024°30'0 0.0
2017-Sep-20 05:17N 40°48' E 024°30'0 0.6
2017-Sep-20 05:00N 40°48' E 024°30'611.1
2017-Sep-20 04:30N 40°53' E 024°27'3 6.1
2017-Sep-20 03:56N 40°56' E 024°25'0 0.0
2017-Sep-20 03:26N 40°56' E 024°25'0 0.0
2017-Sep-20 02:56N 40°56' E 024°25'0 0.0
2017-Sep-19 23:34N 40°56' E 024°25'0 0.0
2017-Sep-19 23:28N 40°56' E 024°25'0 0.0
2017-Sep-19 22:46N 40°56' E 024°25'0 0.0
2017-Sep-19 22:28N 40°56' E 024°25'0 0.0
2017-Sep-19 21:58N 40°56' E 024°25'0 0.0
2017-Sep-19 21:28N 40°56' E 024°25'0 0.0
2017-Sep-19 20:58N 40°56' E 024°25'0 0.0
2017-Sep-19 20:28N 40°56' E 024°25'0 0.0
2017-Sep-19 19:58N 40°56' E 024°25'0 0.0
2017-Sep-19 19:28N 40°56' E 024°25'0 0.0
2017-Sep-19 18:58N 40°56' E 024°25'0 0.0
2017-Sep-19 18:28N 40°56' E 024°25'0 0.0
2017-Sep-19 17:58N 40°56' E 024°25'0 0.0
2017-Sep-19 17:28N 40°56' E 024°25'0 0.0
2017-Sep-19 16:58N 40°56' E 024°25'0 0.0
2017-Sep-19 16:22N 40°56' E 024°25'0 0.0
2017-Sep-19 15:52N 40°56' E 024°25'0 0.0
2017-Sep-19 15:22N 40°56' E 024°25'0 0.0
2017-Sep-19 14:58N 40°56' E 024°25'0 0.0
2017-Sep-19 14:28N 40°56' E 024°25'0 0.0
2017-Sep-19 13:56N 40°56' E 024°25'4 9.4
2017-Sep-19 13:30N 40°52' E 024°27'5 9.8
2017-Sep-19 13:01N 40°48' E 024°30'510.9
2017-Sep-19 12:30N 40°53' E 024°27'3 5.3
2017-Sep-19 11:52N 40°56' E 024°25'0 0.0
2017-Sep-19 11:28N 40°56' E 024°25'0 0.0
2017-Sep-19 10:58N 40°56' E 024°25'0 0.0
2017-Sep-19 10:28N 40°56' E 024°25'0 0.0
2017-Sep-19 09:58N 40°56' E 024°25'0 0.0
2017-Sep-19 09:28N 40°56' E 024°25'0 0.0
2017-Sep-19 08:58N 40°56' E 024°25'0 0.0
2017-Sep-19 08:28N 40°56' E 024°25'0 0.0
2017-Sep-19 07:58N 40°56' E 024°25'0 0.0
2017-Sep-19 07:24N 40°56' E 024°25'0 0.0
2017-Sep-19 07:00N 40°56' E 024°25'0 0.0
2017-Sep-19 06:30N 40°56' E 024°25'0 0.0
2017-Sep-19 06:00N 40°56' E 024°25'4 8.5
2017-Sep-19 05:30N 40°52' E 024°26'5 9.2
2017-Sep-19 04:59N 40°48' E 024°30'611.7
2017-Sep-19 04:30N 40°53' E 024°26'3 5.8
2017-Sep-19 03:56N 40°56' E 024°25'0 0.0
2017-Sep-19 03:26N 40°56' E 024°25'0 0.0
2017-Sep-19 02:56N 40°56' E 024°25'0 0.0
2017-Sep-19 00:14N 40°56' E 024°25'0 0.0
2017-Sep-18 22:44N 40°56' E 024°25'0 0.0
2017-Sep-18 22:29N 40°56' E 024°25'0 0.0
2017-Sep-18 21:59N 40°56' E 024°25'0 0.0
2017-Sep-18 21:17N 40°56' E 024°25'0 0.0
2017-Sep-18 20:53N 40°56' E 024°25'0 0.0
2017-Sep-18 20:29N 40°56' E 024°25'0 0.0
2017-Sep-18 18:47N 40°56' E 024°25'0 0.0
2017-Sep-18 18:29N 40°56' E 024°25'0 0.0
2017-Sep-18 17:59N 40°56' E 024°25'0 0.0
2017-Sep-18 17:17N 40°56' E 024°25'0 0.0
2017-Sep-18 16:59N 40°56' E 024°25'0 0.0
2017-Sep-18 16:29N 40°56' E 024°25'0 0.0
2017-Sep-18 15:59N 40°56' E 024°25'0 0.0
2017-Sep-18 14:35N 40°56' E 024°25'0 0.0
2017-Sep-18 14:29N 40°56' E 024°25'0 0.3
2017-Sep-18 14:01N 40°56' E 024°25'611.7
2017-Sep-18 13:30N 40°50' E 024°28'3 6.0
2017-Sep-18 12:59N 40°48' E 024°30'511.2
2017-Sep-18 12:30N 40°53' E 024°27'4 3.0
2017-Sep-18 11:21N 40°56' E 024°25'0 0.0
2017-Sep-18 10:51N 40°56' E 024°25'0 0.0
2017-Sep-18 10:30N 40°56' E 024°25'0 0.0
2017-Sep-18 09:57N 40°56' E 024°25'0 0.0
2017-Sep-18 09:26N 40°56' E 024°25'0 0.0
2017-Sep-18 08:56N 40°56' E 024°25'0 0.0
2017-Sep-18 08:26N 40°56' E 024°25'0 0.0
2017-Sep-18 07:59N 40°56' E 024°25'0 0.0
2017-Sep-18 07:23N 40°56' E 024°25'0 0.0
2017-Sep-18 06:59N 40°56' E 024°25'0 0.0
2017-Sep-18 06:29N 40°56' E 024°25'0 0.4
2017-Sep-18 05:58N 40°56' E 024°25'713.7
2017-Sep-18 05:28N 40°50' E 024°28'2 4.6
2017-Sep-18 04:58N 40°48' E 024°30'511.8
2017-Sep-18 04:31N 40°53' E 024°27'3 5.9
2017-Sep-18 03:56N 40°56' E 024°25'0 0.0
2017-Sep-18 03:26N 40°56' E 024°25'0 0.0
2017-Sep-18 02:56N 40°56' E 024°25'0 0.0
2017-Sep-18 02:26N 40°56' E 024°25'0 0.0
2017-Sep-18 01:56N 40°56' E 024°25'0 0.0
2017-Sep-18 01:26N 40°56' E 024°25'0 0.0
2017-Sep-18 00:56N 40°56' E 024°25'0 0.0
2017-Sep-18 00:26N 40°56' E 024°25'0 0.0
2017-Sep-17 23:53N 40°56' E 024°25'0 0.0
2017-Sep-17 23:26N 40°56' E 024°25'0 0.0
2017-Sep-17 22:56N 40°56' E 024°25'0 0.0
2017-Sep-17 22:26N 40°56' E 024°25'0 0.4
2017-Sep-17 22:00N 40°56' E 024°25'612.4
2017-Sep-17 21:30N 40°50' E 024°27'3 6.1
2017-Sep-17 21:00N 40°48' E 024°30'510.7
2017-Sep-17 20:30N 40°53' E 024°27'4 6.1
2017-Sep-17 19:55N 40°56' E 024°25'0 0.0
2017-Sep-17 19:25N 40°56' E 024°25'0 0.0
2017-Sep-17 18:55N 40°56' E 024°25'0 0.0
2017-Sep-17 18:25N 40°56' E 024°25'0 0.0
2017-Sep-17 17:55N 40°56' E 024°25'3 6.6
2017-Sep-17 17:30N 40°53' E 024°26'611.3
2017-Sep-17 16:58N 40°48' E 024°30'511.9
2017-Sep-17 16:30N 40°53' E 024°27'3 6.4
2017-Sep-17 15:58N 40°56' E 024°25'0 0.0
2017-Sep-17 15:28N 40°56' E 024°25'0 0.0
2017-Sep-17 14:58N 40°56' E 024°25'0 0.0
2017-Sep-17 14:28N 40°56' E 024°25'0 0.3
2017-Sep-17 14:01N 40°56' E 024°25'611.5
2017-Sep-17 13:30N 40°51' E 024°28'3 6.5
2017-Sep-17 13:00N 40°48' E 024°30'611.5
2017-Sep-17 12:31N 40°53' E 024°27'3 4.3
2017-Sep-17 11:46N 40°56' E 024°25'0 0.0
2017-Sep-17 11:28N 40°56' E 024°25'0 0.0
2017-Sep-17 10:58N 40°56' E 024°25'0 0.0
2017-Sep-17 10:28N 40°56' E 024°25'0 0.0
2017-Sep-17 09:52N 40°56' E 024°25'0 0.0
2017-Sep-17 09:28N 40°56' E 024°25'0 0.0
2017-Sep-17 08:52N 40°56' E 024°25'0 0.0
2017-Sep-17 08:28N 40°56' E 024°25'0 0.0
2017-Sep-17 07:58N 40°56' E 024°25'0 0.0
2017-Sep-17 07:22N 40°56' E 024°25'0 0.0
2017-Sep-17 06:58N 40°56' E 024°25'0 0.0
2017-Sep-17 06:26N 40°56' E 024°25'0 0.0
2017-Sep-17 05:56N 40°56' E 024°25'4 9.5
2017-Sep-17 05:30N 40°52' E 024°26'5 9.3
2017-Sep-17 04:59N 40°48' E 024°30'611.8
2017-Sep-17 04:31N 40°53' E 024°27'3 6.6
2017-Sep-17 04:00N 40°56' E 024°25'0 0.0
2017-Sep-17 03:30N 40°56' E 024°25'0 0.0
2017-Sep-17 03:00N 40°56' E 024°25'0 0.0
2017-Sep-17 02:30N 40°56' E 024°25'0 0.0
2017-Sep-17 02:00N 40°56' E 024°25'0 0.0
2017-Sep-17 01:27N 40°56' E 024°25'0 0.0
2017-Sep-17 00:57N 40°56' E 024°25'0 0.0
2017-Sep-17 00:27N 40°56' E 024°25'0 0.0
2017-Sep-16 23:57N 40°56' E 024°25'0 0.0
2017-Sep-16 23:27N 40°56' E 024°25'0 0.0
2017-Sep-16 23:00N 40°56' E 024°25'0 0.0
2017-Sep-16 22:30N 40°56' E 024°25'0 0.0
2017-Sep-16 22:00N 40°56' E 024°25'0 0.0
2017-Sep-16 21:30N 40°56' E 024°25'0 0.0
2017-Sep-16 21:00N 40°56' E 024°25'0 0.0
2017-Sep-16 20:30N 40°56' E 024°25'0 0.0
2017-Sep-16 20:00N 40°56' E 024°25'0 0.0
2017-Sep-16 19:30N 40°56' E 024°25'0 0.0
2017-Sep-16 19:00N 40°56' E 024°25'0 0.0
2017-Sep-16 18:30N 40°56' E 024°25'0 0.0
2017-Sep-16 18:00N 40°56' E 024°25'0 0.0
2017-Sep-16 17:30N 40°56' E 024°25'0 0.0
2017-Sep-16 17:00N 40°56' E 024°25'0 0.0
2017-Sep-16 16:30N 40°56' E 024°25'0 0.0
2017-Sep-16 16:00N 40°56' E 024°25'0 0.0
2017-Sep-16 15:30N 40°56' E 024°25'0 0.0
2017-Sep-16 15:00N 40°56' E 024°25'0 0.0
2017-Sep-16 14:30N 40°56' E 024°25'0 0.0
2017-Sep-16 14:00N 40°56' E 024°25'0 0.0
2017-Sep-16 13:30N 40°56' E 024°25'0 0.0
2017-Sep-16 13:00N 40°56' E 024°25'0 0.0
2017-Sep-16 12:30N 40°56' E 024°25'0 0.0
2017-Sep-16 12:00N 40°56' E 024°25'0 0.0
2017-Sep-16 11:30N 40°56' E 024°25'0 0.0
2017-Sep-16 11:00N 40°56' E 024°25'0 0.0
2017-Sep-16 10:30N 40°56' E 024°25'0 0.0
2017-Sep-16 10:00N 40°56' E 024°25'0 0.0
2017-Sep-16 09:30N 40°56' E 024°25'0 0.0
2017-Sep-16 09:00N 40°56' E 024°25'0 0.0
2017-Sep-16 08:30N 40°56' E 024°25'0 0.0
2017-Sep-16 08:00N 40°56' E 024°25'0 0.0
2017-Sep-16 07:30N 40°56' E 024°25'0 0.0
2017-Sep-16 07:00N 40°56' E 024°25'0 0.0
2017-Sep-16 06:28N 40°56' E 024°25'0 0.0
2017-Sep-16 05:58N 40°56' E 024°25'0 0.0
2017-Sep-16 05:28N 40°56' E 024°25'0 0.0
2017-Sep-16 04:58N 40°56' E 024°25'0 0.0
2017-Sep-16 04:28N 40°56' E 024°25'0 0.0
2017-Sep-16 03:52N 40°56' E 024°25'0 0.0
2017-Sep-16 03:28N 40°56' E 024°25'0 0.0
2017-Sep-16 02:58N 40°56' E 024°25'0 0.0
2017-Sep-16 02:28N 40°56' E 024°25'0 0.0
2017-Sep-16 01:58N 40°56' E 024°25'0 0.0
2017-Sep-16 01:28N 40°56' E 024°25'0 0.0
2017-Sep-16 00:58N 40°56' E 024°25'0 0.0
2017-Sep-16 00:28N 40°56' E 024°25'0 0.0
2017-Sep-15 23:58N 40°56' E 024°25'0 0.0
2017-Sep-15 23:28N 40°56' E 024°25'0 0.0
2017-Sep-15 22:58N 40°56' E 024°25'0 0.0
2017-Sep-15 22:28N 40°56' E 024°25'0 0.2
2017-Sep-15 22:01N 40°56' E 024°24'714.0
2017-Sep-15 21:30N 40°49' E 024°28'2 4.0
2017-Sep-15 21:00N 40°48' E 024°30'611.2
2017-Sep-15 20:30N 40°53' E 024°27'3 6.4
2017-Sep-15 19:59N 40°56' E 024°25'0 0.0
2017-Sep-15 19:29N 40°56' E 024°25'0 0.0
2017-Sep-15 18:59N 40°56' E 024°25'0 0.0
2017-Sep-15 18:29N 40°56' E 024°25'0 0.0
2017-Sep-15 17:59N 40°56' E 024°25'0 0.0
2017-Sep-15 17:29N 40°56' E 024°25'0 0.0
2017-Sep-15 16:59N 40°56' E 024°25'0 0.0
2017-Sep-15 16:29N 40°56' E 024°25'0 0.0
2017-Sep-15 15:59N 40°56' E 024°25'0 0.0
2017-Sep-15 15:26N 40°56' E 024°25'0 0.0
2017-Sep-15 14:59N 40°56' E 024°25'0 0.0
2017-Sep-15 14:26N 40°56' E 024°25'0 0.3
2017-Sep-15 14:00N 40°56' E 024°24'814.9
2017-Sep-15 13:29N 40°49' E 024°29'1 2.8
2017-Sep-15 13:00N 40°48' E 024°30'611.3
2017-Sep-15 12:30N 40°53' E 024°27'3 3.5
2017-Sep-15 11:34N 40°56' E 024°25'0 0.1
2017-Sep-15 11:28N 40°56' E 024°25'0 0.0
2017-Sep-15 10:58N 40°56' E 024°25'0 0.2
2017-Sep-15 10:28N 40°56' E 024°25'0 0.0
2017-Sep-15 09:58N 40°56' E 024°25'0 0.0
2017-Sep-15 09:28N 40°56' E 024°25'0 0.0
2017-Sep-15 09:01N 40°56' E 024°25'0 0.0
2017-Sep-15 08:28N 40°56' E 024°25'0 0.0
2017-Sep-15 08:01N 40°56' E 024°25'0 0.0
2017-Sep-15 07:28N 40°56' E 024°25'0 0.0
2017-Sep-15 06:56N 40°56' E 024°25'0 0.0
2017-Sep-15 06:29N 40°56' E 024°25'0 0.0
2017-Sep-15 05:58N 40°56' E 024°25'4 9.5
2017-Sep-15 05:30N 40°52' E 024°27'5 8.7
2017-Sep-15 04:59N 40°48' E 024°30'511.2
2017-Sep-15 04:30N 40°53' E 024°27'4 6.7
2017-Sep-15 03:59N 40°56' E 024°25'0 0.0
2017-Sep-15 03:29N 40°56' E 024°25'0 0.0
2017-Sep-15 02:59N 40°56' E 024°25'0 0.0
2017-Sep-15 02:29N 40°56' E 024°25'0 0.0
2017-Sep-15 01:59N 40°56' E 024°25'0 0.0
2017-Sep-15 01:29N 40°56' E 024°25'0 0.0
2017-Sep-15 00:53N 40°56' E 024°25'0 0.0
2017-Sep-15 00:29N 40°56' E 024°25'0 0.0
2017-Sep-14 23:59N 40°56' E 024°25'0 0.0
2017-Sep-14 23:29N 40°56' E 024°25'0 0.0
2017-Sep-14 22:59N 40°56' E 024°25'0 0.0
2017-Sep-14 22:29N 40°56' E 024°25'0 0.0
2017-Sep-14 21:59N 40°56' E 024°25'0 0.0
2017-Sep-14 21:29N 40°56' E 024°25'0 0.0
2017-Sep-14 20:59N 40°56' E 024°25'0 0.0
2017-Sep-14 20:29N 40°56' E 024°25'0 0.0
2017-Sep-14 19:59N 40°56' E 024°25'0 0.0
2017-Sep-14 19:29N 40°56' E 024°25'0 0.0
2017-Sep-14 18:59N 40°56' E 024°25'0 0.0
2017-Sep-14 18:29N 40°56' E 024°25'0 0.0
2017-Sep-14 17:56N 40°56' E 024°25'0 0.0
2017-Sep-14 17:23N 40°56' E 024°25'0 0.0
2017-Sep-14 16:59N 40°56' E 024°25'0 0.0
2017-Sep-14 16:29N 40°56' E 024°25'0 0.0
2017-Sep-14 15:59N 40°56' E 024°25'0 0.0
2017-Sep-14 15:29N 40°56' E 024°25'0 0.0
2017-Sep-14 14:38N 40°56' E 024°25'0 2.5
2017-Sep-14 14:30N 40°56' E 024°25'612.2
2017-Sep-14 14:00N 40°57' E 024°33'815.7
2017-Sep-14 13:30N 40°49' E 024°31'2 3.4
2017-Sep-14 12:58N 40°48' E 024°30'0 0.4
2017-Sep-14 12:29N 40°48' E 024°30'0 0.0
2017-Sep-14 11:59N 40°48' E 024°30'0 0.0
2017-Sep-14 11:26N 40°48' E 024°30'0 0.0
2017-Sep-14 10:50N 40°48' E 024°30'0 0.5
2017-Sep-14 10:29N 40°48' E 024°30'612.6
2017-Sep-14 10:00N 40°54' E 024°32'4 7.0
2017-Sep-14 09:29N 40°57' E 024°33'0 0.0
2017-Sep-14 08:59N 40°57' E 024°33'0 0.0
2017-Sep-14 08:29N 40°57' E 024°33'0 0.0
2017-Sep-14 07:59N 40°57' E 024°33'0 0.1
2017-Sep-14 07:29N 40°57' E 024°33'0 0.0
2017-Sep-14 06:59N 40°57' E 024°33'0 0.6
2017-Sep-14 06:30N 40°57' E 024°32'610.5
2017-Sep-14 05:57N 40°56' E 024°25'511.9
2017-Sep-14 05:30N 40°51' E 024°27'4 7.3
2017-Sep-14 04:59N 40°48' E 024°30'611.7
2017-Sep-14 04:31N 40°53' E 024°27'3 6.1
2017-Sep-14 03:58N 40°56' E 024°25'0 0.0
2017-Sep-14 03:22N 40°56' E 024°25'0 0.0
2017-Sep-14 02:58N 40°56' E 024°25'0 0.0
2017-Sep-14 02:28N 40°56' E 024°25'0 0.0
2017-Sep-14 01:58N 40°56' E 024°25'0 0.0
2017-Sep-14 01:28N 40°56' E 024°25'0 0.0
2017-Sep-14 00:58N 40°56' E 024°25'0 0.0
2017-Sep-14 00:25N 40°56' E 024°25'0 0.0
2017-Sep-13 23:55N 40°56' E 024°25'0 0.0
2017-Sep-13 23:19N 40°56' E 024°25'0 0.0
2017-Sep-13 22:58N 40°56' E 024°25'0 0.0
2017-Sep-13 22:25N 40°56' E 024°25'0 0.1
2017-Sep-13 22:00N 40°56' E 024°25'510.2
2017-Sep-13 21:30N 40°51' E 024°27'4 7.4
2017-Sep-13 21:00N 40°48' E 024°30'511.1
2017-Sep-13 20:30N 40°53' E 024°27'4 6.7
2017-Sep-13 19:59N 40°56' E 024°25'0 0.0
2017-Sep-13 19:29N 40°56' E 024°25'0 0.0
2017-Sep-13 18:47N 40°56' E 024°25'0 0.0
2017-Sep-13 18:29N 40°56' E 024°25'0 0.0
2017-Sep-13 17:59N 40°56' E 024°25'0 0.0
2017-Sep-13 17:29N 40°56' E 024°25'0 0.0
2017-Sep-13 16:59N 40°56' E 024°25'0 0.0
2017-Sep-13 16:29N 40°56' E 024°25'0 0.0
2017-Sep-13 15:53N 40°56' E 024°25'0 0.0
2017-Sep-13 15:29N 40°56' E 024°25'0 0.0
2017-Sep-13 14:59N 40°56' E 024°25'0 0.0
2017-Sep-13 14:29N 40°56' E 024°25'0 0.4
2017-Sep-13 14:00N 40°56' E 024°25'612.7
2017-Sep-13 13:30N 40°50' E 024°28'3 5.7
2017-Sep-13 13:00N 40°48' E 024°30'510.9
2017-Sep-13 12:30N 40°53' E 024°27'4 6.1
2017-Sep-13 11:56N 40°56' E 024°25'0 0.0
2017-Sep-13 11:26N 40°56' E 024°25'0 0.0
2017-Sep-13 10:56N 40°56' E 024°25'0 0.0
2017-Sep-13 10:26N 40°56' E 024°25'0 0.0
2017-Sep-13 09:53N 40°56' E 024°25'0 0.0
2017-Sep-13 09:29N 40°56' E 024°25'0 0.0
2017-Sep-13 08:59N 40°56' E 024°25'0 0.0
2017-Sep-13 08:29N 40°56' E 024°25'0 0.0
2017-Sep-13 07:56N 40°56' E 024°25'0 0.0
2017-Sep-13 07:26N 40°56' E 024°25'0 0.0
2017-Sep-13 06:56N 40°56' E 024°25'0 0.0
2017-Sep-13 06:26N 40°56' E 024°25'0 0.1
2017-Sep-13 06:01N 40°56' E 024°25'5 9.7
2017-Sep-13 05:30N 40°51' E 024°27'4 7.9
2017-Sep-13 04:59N 40°48' E 024°30'611.7
2017-Sep-13 04:30N 40°53' E 024°27'3 5.7
2017-Sep-13 03:55N 40°56' E 024°25'0 0.0
2017-Sep-13 03:28N 40°56' E 024°25'0 0.0
2017-Sep-13 02:52N 40°56' E 024°25'0 0.0
2017-Sep-13 02:25N 40°56' E 024°25'0 0.0
2017-Sep-13 01:55N 40°56' E 024°25'0 0.0
2017-Sep-12 23:25N 40°56' E 024°25'0 0.0
2017-Sep-12 22:55N 40°56' E 024°25'0 0.0
2017-Sep-12 22:25N 40°56' E 024°25'0 0.0
2017-Sep-12 22:01N 40°56' E 024°25'5 9.5
2017-Sep-12 21:31N 40°51' E 024°27'4 8.4
2017-Sep-12 21:00N 40°48' E 024°30'611.4
2017-Sep-12 20:30N 40°53' E 024°27'3 5.1
2017-Sep-12 19:51N 40°56' E 024°25'0 0.0
2017-Sep-12 19:27N 40°56' E 024°25'0 0.0
2017-Sep-12 18:57N 40°56' E 024°25'0 0.0
2017-Sep-12 18:27N 40°56' E 024°25'0 0.0
2017-Sep-12 17:15N 40°56' E 024°25'0 0.0
2017-Sep-12 17:00N 40°56' E 024°25'0 0.0
2017-Sep-12 16:27N 40°56' E 024°25'0 0.0
2017-Sep-12 16:00N 40°56' E 024°25'0 0.0
2017-Sep-12 14:12N 40°56' E 024°25'0 2.3
2017-Sep-12 14:00N 40°55' E 024°24'815.7
2017-Sep-12 13:30N 40°49' E 024°29'1 1.9
2017-Sep-12 13:01N 40°48' E 024°30'611.3
2017-Sep-12 12:30N 40°53' E 024°27'3 5.8
2017-Sep-12 11:57N 40°56' E 024°25'0 0.0
2017-Sep-12 11:27N 40°56' E 024°25'0 0.0
2017-Sep-12 10:57N 40°56' E 024°25'0 0.0
2017-Sep-12 10:27N 40°56' E 024°25'0 0.0
2017-Sep-12 09:57N 40°56' E 024°25'0 0.0
2017-Sep-12 09:21N 40°56' E 024°25'0 0.0
2017-Sep-12 08:57N 40°56' E 024°25'0 0.0
2017-Sep-12 08:27N 40°56' E 024°25'0 0.0
2017-Sep-12 07:57N 40°56' E 024°25'0 0.0
2017-Sep-12 07:27N 40°56' E 024°25'0 0.0
2017-Sep-12 06:57N 40°56' E 024°25'0 0.0
2017-Sep-12 06:27N 40°56' E 024°25'0 0.3
2017-Sep-12 06:00N 40°56' E 024°25'510.4
2017-Sep-12 05:30N 40°51' E 024°27'4 7.6
2017-Sep-12 05:00N 40°48' E 024°30'611.1
2017-Sep-12 04:30N 40°53' E 024°27'3 4.1
2017-Sep-12 03:41N 40°56' E 024°25'0 0.0
2017-Sep-12 03:29N 40°56' E 024°25'0 0.0
2017-Sep-12 02:59N 40°56' E 024°25'0 0.0
2017-Sep-12 02:29N 40°56' E 024°25'0 0.0
2017-Sep-12 01:59N 40°56' E 024°25'  

Dump ship's entire track history